sensor_id;sensor_type;location;lat;lon;timestamp;P1;durP1;ratioP1;P2;durP2;ratioP2
65244;SDS011;51846;48.692;2.382;2023-10-08T00:01:17;17.88;;;10.50;;
65244;SDS011;51846;48.692;2.382;2023-10-08T00:03:44;19.88;;;11.02;;
65244;SDS011;51846;48.692;2.382;2023-10-08T00:06:16;19.33;;;10.50;;
65244;SDS011;51846;48.692;2.382;2023-10-08T00:08:44;19.95;;;9.93;;
65244;SDS011;51846;48.692;2.382;2023-10-08T00:11:10;17.40;;;10.07;;
65244;SDS011;51846;48.692;2.382;2023-10-08T00:13:36;20.02;;;10.65;;
65244;SDS011;51846;48.692;2.382;2023-10-08T00:16:08;18.77;;;9.80;;
65244;SDS011;51846;48.692;2.382;2023-10-08T00:18:42;17.42;;;9.57;;
65244;SDS011;51846;48.692;2.382;2023-10-08T00:21:14;18.48;;;10.25;;
65244;SDS011;51846;48.692;2.382;2023-10-08T00:23:39;17.17;;;9.07;;
65244;SDS011;51846;48.692;2.382;2023-10-08T00:26:09;16.30;;;8.98;;
65244;SDS011;51846;48.692;2.382;2023-10-08T00:28:34;16.20;;;9.07;;
65244;SDS011;51846;48.692;2.382;2023-10-08T00:31:03;17.65;;;8.85;;
65244;SDS011;51846;48.692;2.382;2023-10-08T00:33:37;15.70;;;8.32;;
65244;SDS011;51846;48.692;2.382;2023-10-08T00:36:09;14.82;;;8.30;;
65244;SDS011;51846;48.692;2.382;2023-10-08T00:38:44;16.20;;;8.35;;
65244;SDS011;51846;48.692;2.382;2023-10-08T00:41:13;17.40;;;8.43;;
65244;SDS011;51846;48.692;2.382;2023-10-08T00:43:46;16.35;;;8.68;;
65244;SDS011;51846;48.692;2.382;2023-10-08T00:46:12;16.92;;;9.32;;
65244;SDS011;51846;48.692;2.382;2023-10-08T00:48:47;16.10;;;8.57;;
65244;SDS011;51846;48.692;2.382;2023-10-08T00:51:15;15.73;;;8.70;;
65244;SDS011;51846;48.692;2.382;2023-10-08T00:53:48;18.10;;;9.00;;
65244;SDS011;51846;48.692;2.382;2023-10-08T00:56:27;16.33;;;8.55;;
65244;SDS011;51846;48.692;2.382;2023-10-08T00:59:11;20.13;;;9.15;;
65244;SDS011;51846;48.692;2.382;2023-10-08T01:01:41;16.23;;;9.10;;
65244;SDS011;51846;48.692;2.382;2023-10-08T01:04:24;17.67;;;8.60;;
65244;SDS011;51846;48.692;2.382;2023-10-08T01:06:54;15.10;;;8.40;;
65244;SDS011;51846;48.692;2.382;2023-10-08T01:09:24;16.17;;;8.63;;
65244;SDS011;51846;48.692;2.382;2023-10-08T01:12:16;19.92;;;9.00;;
65244;SDS011;51846;48.692;2.382;2023-10-08T01:14:54;16.48;;;8.82;;
65244;SDS011;51846;48.692;2.382;2023-10-08T01:17:23;16.35;;;9.00;;
65244;SDS011;51846;48.692;2.382;2023-10-08T01:19:50;17.35;;;9.75;;
65244;SDS011;51846;48.692;2.382;2023-10-08T01:22:20;16.30;;;9.32;;
65244;SDS011;51846;48.692;2.382;2023-10-08T01:24:47;17.77;;;10.30;;
65244;SDS011;51846;48.692;2.382;2023-10-08T01:27:14;20.25;;;11.02;;
65244;SDS011;51846;48.692;2.382;2023-10-08T01:29:46;20.15;;;10.95;;
65244;SDS011;51846;48.692;2.382;2023-10-08T01:32:12;17.88;;;9.80;;
65244;SDS011;51846;48.692;2.382;2023-10-08T01:34:41;19.55;;;9.52;;
65244;SDS011;51846;48.692;2.382;2023-10-08T01:37:10;16.65;;;9.07;;
65244;SDS011;51846;48.692;2.382;2023-10-08T01:39:46;16.55;;;9.13;;
65244;SDS011;51846;48.692;2.382;2023-10-08T01:42:13;14.77;;;8.75;;
65244;SDS011;51846;48.692;2.382;2023-10-08T01:44:46;17.90;;;9.70;;
65244;SDS011;51846;48.692;2.382;2023-10-08T01:47:12;16.58;;;8.82;;
65244;SDS011;51846;48.692;2.382;2023-10-08T01:49:39;16.80;;;9.32;;
65244;SDS011;51846;48.692;2.382;2023-10-08T01:52:05;21.67;;;9.15;;
65244;SDS011;51846;48.692;2.382;2023-10-08T01:54:38;16.88;;;9.40;;
65244;SDS011;51846;48.692;2.382;2023-10-08T01:57:03;19.05;;;9.60;;
65244;SDS011;51846;48.692;2.382;2023-10-08T01:59:30;16.63;;;9.32;;
65244;SDS011;51846;48.692;2.382;2023-10-08T02:01:57;18.92;;;9.27;;
65244;SDS011;51846;48.692;2.382;2023-10-08T02:04:23;17.13;;;9.43;;
65244;SDS011;51846;48.692;2.382;2023-10-08T02:06:48;18.85;;;9.43;;
65244;SDS011;51846;48.692;2.382;2023-10-08T02:09:14;15.30;;;8.57;;
65244;SDS011;51846;48.692;2.382;2023-10-08T02:11:41;18.13;;;8.93;;
65244;SDS011;51846;48.692;2.382;2023-10-08T02:14:10;14.90;;;8.45;;
65244;SDS011;51846;48.692;2.382;2023-10-08T02:16:36;15.82;;;8.68;;
65244;SDS011;51846;48.692;2.382;2023-10-08T02:19:02;17.48;;;9.02;;
65244;SDS011;51846;48.692;2.382;2023-10-08T02:21:28;19.92;;;9.20;;
65244;SDS011;51846;48.692;2.382;2023-10-08T02:23:54;19.45;;;9.50;;
65244;SDS011;51846;48.692;2.382;2023-10-08T02:26:19;17.42;;;9.98;;
65244;SDS011;51846;48.692;2.382;2023-10-08T02:28:44;17.13;;;9.10;;
65244;SDS011;51846;48.692;2.382;2023-10-08T02:31:10;16.27;;;9.27;;
65244;SDS011;51846;48.692;2.382;2023-10-08T02:33:35;15.50;;;8.75;;
65244;SDS011;51846;48.692;2.382;2023-10-08T02:36:02;17.60;;;9.05;;
65244;SDS011;51846;48.692;2.382;2023-10-08T02:38:29;15.30;;;8.63;;
65244;SDS011;51846;48.692;2.382;2023-10-08T02:40:55;15.07;;;8.40;;
65244;SDS011;51846;48.692;2.382;2023-10-08T02:43:21;14.30;;;8.98;;
65244;SDS011;51846;48.692;2.382;2023-10-08T02:45:48;13.95;;;8.48;;
65244;SDS011;51846;48.692;2.382;2023-10-08T02:48:14;15.90;;;8.13;;
65244;SDS011;51846;48.692;2.382;2023-10-08T02:50:40;20.00;;;8.90;;
65244;SDS011;51846;48.692;2.382;2023-10-08T02:53:06;14.18;;;8.15;;
65244;SDS011;51846;48.692;2.382;2023-10-08T02:55:38;17.10;;;8.15;;
65244;SDS011;51846;48.692;2.382;2023-10-08T02:58:09;14.63;;;8.23;;
65244;SDS011;51846;48.692;2.382;2023-10-08T03:00:44;14.82;;;8.20;;
65244;SDS011;51846;48.692;2.382;2023-10-08T03:03:12;17.58;;;8.50;;
65244;SDS011;51846;48.692;2.382;2023-10-08T03:05:43;15.32;;;8.07;;
65244;SDS011;51846;48.692;2.382;2023-10-08T03:08:16;15.57;;;8.10;;
65244;SDS011;51846;48.692;2.382;2023-10-08T03:10:46;15.32;;;8.18;;
65244;SDS011;51846;48.692;2.382;2023-10-08T03:13:16;12.70;;;7.40;;
65244;SDS011;51846;48.692;2.382;2023-10-08T03:15:42;14.63;;;8.15;;
65244;SDS011;51846;48.692;2.382;2023-10-08T03:18:33;18.10;;;8.10;;
65244;SDS011;51846;48.692;2.382;2023-10-08T03:21:05;14.10;;;7.88;;
65244;SDS011;51846;48.692;2.382;2023-10-08T03:23:48;15.07;;;7.90;;
65244;SDS011;51846;48.692;2.382;2023-10-08T03:26:16;13.80;;;7.70;;
65244;SDS011;51846;48.692;2.382;2023-10-08T03:28:57;12.88;;;8.02;;
65244;SDS011;51846;48.692;2.382;2023-10-08T03:31:25;12.57;;;7.43;;
65244;SDS011;51846;48.692;2.382;2023-10-08T03:34:19;12.15;;;7.35;;
65244;SDS011;51846;48.692;2.382;2023-10-08T03:36:45;14.18;;;7.45;;
65244;SDS011;51846;48.692;2.382;2023-10-08T03:39:12;14.70;;;7.53;;
65244;SDS011;51846;48.692;2.382;2023-10-08T03:41:41;13.52;;;7.22;;
65244;SDS011;51846;48.692;2.382;2023-10-08T03:44:07;12.68;;;7.72;;
65244;SDS011;51846;48.692;2.382;2023-10-08T03:46:41;13.70;;;7.57;;
65244;SDS011;51846;48.692;2.382;2023-10-08T03:49:12;16.17;;;7.75;;
65244;SDS011;51846;48.692;2.382;2023-10-08T03:51:53;17.63;;;7.60;;
65244;SDS011;51846;48.692;2.382;2023-10-08T03:54:19;14.77;;;7.55;;
65244;SDS011;51846;48.692;2.382;2023-10-08T03:56:49;14.95;;;7.72;;
65244;SDS011;51846;48.692;2.382;2023-10-08T03:59:16;13.73;;;7.32;;
65244;SDS011;51846;48.692;2.382;2023-10-08T04:01:57;17.83;;;7.68;;
65244;SDS011;51846;48.692;2.382;2023-10-08T04:04:27;13.10;;;7.80;;
65244;SDS011;51846;48.692;2.382;2023-10-08T04:07:11;15.00;;;8.07;;
65244;SDS011;51846;48.692;2.382;2023-10-08T04:09:55;15.00;;;7.32;;
65244;SDS011;51846;48.692;2.382;2023-10-08T04:12:33;12.77;;;7.40;;
65244;SDS011;51846;48.692;2.382;2023-10-08T04:15:08;14.80;;;8.27;;
65244;SDS011;51846;48.692;2.382;2023-10-08T04:17:37;14.65;;;7.65;;
65244;SDS011;51846;48.692;2.382;2023-10-08T04:20:09;13.75;;;7.63;;
65244;SDS011;51846;48.692;2.382;2023-10-08T04:23:00;13.65;;;7.50;;
65244;SDS011;51846;48.692;2.382;2023-10-08T04:25:28;14.23;;;7.68;;
65244;SDS011;51846;48.692;2.382;2023-10-08T04:27:55;14.50;;;7.72;;
65244;SDS011;51846;48.692;2.382;2023-10-08T04:30:23;15.57;;;8.00;;
65244;SDS011;51846;48.692;2.382;2023-10-08T04:33:01;17.52;;;7.90;;
65244;SDS011;51846;48.692;2.382;2023-10-08T04:35:36;14.82;;;7.90;;
65244;SDS011;51846;48.692;2.382;2023-10-08T04:38:12;13.18;;;7.18;;
65244;SDS011;51846;48.692;2.382;2023-10-08T04:40:38;14.27;;;7.72;;
65244;SDS011;51846;48.692;2.382;2023-10-08T04:43:13;14.98;;;7.60;;
65244;SDS011;51846;48.692;2.382;2023-10-08T04:45:40;13.55;;;7.47;;
65244;SDS011;51846;48.692;2.382;2023-10-08T04:48:06;14.75;;;7.40;;
65244;SDS011;51846;48.692;2.382;2023-10-08T04:50:35;12.02;;;7.43;;
65244;SDS011;51846;48.692;2.382;2023-10-08T04:53:02;14.52;;;7.68;;
65244;SDS011;51846;48.692;2.382;2023-10-08T04:55:33;15.23;;;7.72;;
65244;SDS011;51846;48.692;2.382;2023-10-08T04:57:59;13.25;;;7.45;;
65244;SDS011;51846;48.692;2.382;2023-10-08T05:00:27;14.10;;;7.20;;
65244;SDS011;51846;48.692;2.382;2023-10-08T05:03:11;14.13;;;7.20;;
65244;SDS011;51846;48.692;2.382;2023-10-08T05:05:40;12.23;;;7.22;;
65244;SDS011;51846;48.692;2.382;2023-10-08T05:08:32;12.60;;;7.47;;
65244;SDS011;51846;48.692;2.382;2023-10-08T05:11:09;14.65;;;7.32;;
65244;SDS011;51846;48.692;2.382;2023-10-08T05:13:49;11.93;;;7.13;;
65244;SDS011;51846;48.692;2.382;2023-10-08T05:16:26;12.82;;;7.30;;
65244;SDS011;51846;48.692;2.382;2023-10-08T05:19:25;16.73;;;7.30;;
65244;SDS011;51846;48.692;2.382;2023-10-08T05:22:14;13.93;;;7.30;;
65244;SDS011;51846;48.692;2.382;2023-10-08T05:24:55;13.77;;;7.55;;
65244;SDS011;51846;48.692;2.382;2023-10-08T05:30:29;13.05;;;6.95;;
65244;SDS011;51846;48.692;2.382;2023-10-08T05:33:18;14.63;;;7.20;;
65244;SDS011;51846;48.692;2.382;2023-10-08T05:36:09;14.27;;;7.40;;
65244;SDS011;51846;48.692;2.382;2023-10-08T05:38:43;13.77;;;7.20;;
65244;SDS011;51846;48.692;2.382;2023-10-08T05:41:25;12.63;;;7.18;;
65244;SDS011;51846;48.692;2.382;2023-10-08T05:43:56;14.13;;;7.22;;
65244;SDS011;51846;48.692;2.382;2023-10-08T05:46:39;12.65;;;6.97;;
65244;SDS011;51846;48.692;2.382;2023-10-08T05:49:11;12.55;;;6.80;;
65244;SDS011;51846;48.692;2.382;2023-10-08T05:51:38;13.60;;;7.38;;
65244;SDS011;51846;48.692;2.382;2023-10-08T05:54:11;12.95;;;7.05;;
65244;SDS011;51846;48.692;2.382;2023-10-08T05:57:01;14.25;;;7.35;;
65244;SDS011;51846;48.692;2.382;2023-10-08T05:59:46;13.38;;;7.15;;
65244;SDS011;51846;48.692;2.382;2023-10-08T06:02:31;12.65;;;7.13;;
65244;SDS011;51846;48.692;2.382;2023-10-08T06:05:06;13.73;;;7.07;;
65244;SDS011;51846;48.692;2.382;2023-10-08T06:10:25;12.88;;;6.90;;
65244;SDS011;51846;48.692;2.382;2023-10-08T06:13:05;14.85;;;7.85;;
65244;SDS011;51846;48.692;2.382;2023-10-08T06:18:28;13.25;;;7.00;;
65244;SDS011;51846;48.692;2.382;2023-10-08T06:20:54;14.00;;;7.20;;
65244;SDS011;51846;48.692;2.382;2023-10-08T06:23:24;12.57;;;7.05;;
65244;SDS011;51846;48.692;2.382;2023-10-08T06:25:56;13.32;;;7.38;;
65244;SDS011;51846;48.692;2.382;2023-10-08T06:28:24;13.13;;;6.55;;
65244;SDS011;51846;48.692;2.382;2023-10-08T06:30:54;14.43;;;7.18;;
65244;SDS011;51846;48.692;2.382;2023-10-08T06:33:21;13.80;;;7.28;;
65244;SDS011;51846;48.692;2.382;2023-10-08T06:35:47;13.05;;;7.30;;
65244;SDS011;51846;48.692;2.382;2023-10-08T06:38:45;14.57;;;7.30;;
65244;SDS011;51846;48.692;2.382;2023-10-08T06:41:14;14.65;;;7.03;;
65244;SDS011;51846;48.692;2.382;2023-10-08T06:43:43;18.40;;;7.53;;
65244;SDS011;51846;48.692;2.382;2023-10-08T06:46:27;14.40;;;7.00;;
65244;SDS011;51846;48.692;2.382;2023-10-08T06:48:54;15.80;;;7.05;;
65244;SDS011;51846;48.692;2.382;2023-10-08T06:51:19;12.80;;;6.97;;
65244;SDS011;51846;48.692;2.382;2023-10-08T06:53:46;14.02;;;7.40;;
65244;SDS011;51846;48.692;2.382;2023-10-08T06:56:15;11.55;;;7.18;;
65244;SDS011;51846;48.692;2.382;2023-10-08T06:58:42;14.35;;;7.30;;
65244;SDS011;51846;48.692;2.382;2023-10-08T07:01:14;14.35;;;7.30;;
65244;SDS011;51846;48.692;2.382;2023-10-08T07:03:46;12.55;;;6.90;;
65244;SDS011;51846;48.692;2.382;2023-10-08T07:06:14;12.57;;;7.20;;
65244;SDS011;51846;48.692;2.382;2023-10-08T07:08:50;12.43;;;7.18;;
65244;SDS011;51846;48.692;2.382;2023-10-08T07:11:20;12.48;;;6.70;;
65244;SDS011;51846;48.692;2.382;2023-10-08T07:13:46;16.48;;;7.68;;
65244;SDS011;51846;48.692;2.382;2023-10-08T07:16:12;17.20;;;7.07;;
65244;SDS011;51846;48.692;2.382;2023-10-08T07:18:42;12.13;;;7.22;;
65244;SDS011;51846;48.692;2.382;2023-10-08T07:21:13;12.40;;;7.15;;
65244;SDS011;51846;48.692;2.382;2023-10-08T07:23:39;14.98;;;7.00;;
65244;SDS011;51846;48.692;2.382;2023-10-08T07:26:21;14.38;;;7.07;;
65244;SDS011;51846;48.692;2.382;2023-10-08T07:28:51;13.15;;;7.20;;
65244;SDS011;51846;48.692;2.382;2023-10-08T07:31:18;11.52;;;6.97;;
65244;SDS011;51846;48.692;2.382;2023-10-08T07:33:53;14.30;;;6.80;;
65244;SDS011;51846;48.692;2.382;2023-10-08T07:36:53;12.52;;;6.97;;
65244;SDS011;51846;48.692;2.382;2023-10-08T07:39:20;11.73;;;7.30;;
65244;SDS011;51846;48.692;2.382;2023-10-08T07:41:56;13.25;;;7.68;;
65244;SDS011;51846;48.692;2.382;2023-10-08T07:44:24;17.83;;;8.00;;
65244;SDS011;51846;48.692;2.382;2023-10-08T07:46:55;15.50;;;7.90;;
65244;SDS011;51846;48.692;2.382;2023-10-08T07:49:21;18.48;;;8.20;;
65244;SDS011;51846;48.692;2.382;2023-10-08T07:51:48;14.75;;;7.82;;
65244;SDS011;51846;48.692;2.382;2023-10-08T07:54:23;15.57;;;7.95;;
65244;SDS011;51846;48.692;2.382;2023-10-08T07:56:55;14.50;;;7.57;;
65244;SDS011;51846;48.692;2.382;2023-10-08T07:59:43;14.52;;;7.50;;
65244;SDS011;51846;48.692;2.382;2023-10-08T08:02:12;13.73;;;7.40;;
65244;SDS011;51846;48.692;2.382;2023-10-08T08:04:42;16.23;;;7.13;;
65244;SDS011;51846;48.692;2.382;2023-10-08T08:07:10;12.85;;;7.10;;
65244;SDS011;51846;48.692;2.382;2023-10-08T08:09:50;12.43;;;6.57;;
65244;SDS011;51846;48.692;2.382;2023-10-08T08:12:17;11.60;;;6.65;;
65244;SDS011;51846;48.692;2.382;2023-10-08T08:14:44;13.32;;;6.68;;
65244;SDS011;51846;48.692;2.382;2023-10-08T08:17:10;11.23;;;6.45;;
65244;SDS011;51846;48.692;2.382;2023-10-08T08:19:48;11.73;;;6.63;;
65244;SDS011;51846;48.692;2.382;2023-10-08T08:22:17;12.70;;;6.90;;
65244;SDS011;51846;48.692;2.382;2023-10-08T08:24:50;13.52;;;6.95;;
65244;SDS011;51846;48.692;2.382;2023-10-08T08:27:31;15.18;;;6.60;;
65244;SDS011;51846;48.692;2.382;2023-10-08T08:29:57;13.07;;;6.72;;
65244;SDS011;51846;48.692;2.382;2023-10-08T08:32:35;14.32;;;7.70;;
65244;SDS011;51846;48.692;2.382;2023-10-08T08:35:05;13.00;;;6.97;;
65244;SDS011;51846;48.692;2.382;2023-10-08T08:37:33;12.10;;;7.18;;
65244;SDS011;51846;48.692;2.382;2023-10-08T08:40:01;15.18;;;7.60;;
65244;SDS011;51846;48.692;2.382;2023-10-08T08:42:33;12.93;;;6.90;;
65244;SDS011;51846;48.692;2.382;2023-10-08T08:45:00;13.10;;;7.45;;
65244;SDS011;51846;48.692;2.382;2023-10-08T08:47:28;13.82;;;7.20;;
65244;SDS011;51846;48.692;2.382;2023-10-08T08:49:56;11.90;;;6.68;;
65244;SDS011;51846;48.692;2.382;2023-10-08T08:52:25;14.48;;;7.30;;
65244;SDS011;51846;48.692;2.382;2023-10-08T08:54:50;16.52;;;7.22;;
65244;SDS011;51846;48.692;2.382;2023-10-08T08:57:16;13.02;;;6.90;;
65244;SDS011;51846;48.692;2.382;2023-10-08T08:59:44;12.57;;;6.68;;
65244;SDS011;51846;48.692;2.382;2023-10-08T09:02:17;13.63;;;6.80;;
65244;SDS011;51846;48.692;2.382;2023-10-08T09:04:43;11.32;;;6.80;;
65244;SDS011;51846;48.692;2.382;2023-10-08T09:07:10;12.27;;;6.38;;
65244;SDS011;51846;48.692;2.382;2023-10-08T09:09:37;13.50;;;6.50;;
65244;SDS011;51846;48.692;2.382;2023-10-08T09:12:04;13.65;;;6.63;;
65244;SDS011;51846;48.692;2.382;2023-10-08T09:14:30;12.05;;;6.32;;
65244;SDS011;51846;48.692;2.382;2023-10-08T09:16:59;12.65;;;6.20;;
65244;SDS011;51846;48.692;2.382;2023-10-08T09:19:26;11.13;;;6.40;;
65244;SDS011;51846;48.692;2.382;2023-10-08T09:22:02;15.70;;;6.40;;
65244;SDS011;51846;48.692;2.382;2023-10-08T09:24:41;10.77;;;6.32;;
65244;SDS011;51846;48.692;2.382;2023-10-08T09:27:08;11.50;;;5.97;;
65244;SDS011;51846;48.692;2.382;2023-10-08T09:29:39;12.52;;;6.38;;
65244;SDS011;51846;48.692;2.382;2023-10-08T09:32:05;11.55;;;6.40;;
65244;SDS011;51846;48.692;2.382;2023-10-08T09:34:32;12.32;;;6.18;;
65244;SDS011;51846;48.692;2.382;2023-10-08T09:36:59;16.25;;;6.30;;
65244;SDS011;51846;48.692;2.382;2023-10-08T09:39:26;11.45;;;6.00;;
65244;SDS011;51846;48.692;2.382;2023-10-08T09:41:57;13.20;;;6.10;;
65244;SDS011;51846;48.692;2.382;2023-10-08T09:44:23;14.35;;;6.15;;
65244;SDS011;51846;48.692;2.382;2023-10-08T09:46:59;10.88;;;6.25;;
65244;SDS011;51846;48.692;2.382;2023-10-08T09:49:39;11.88;;;6.05;;
65244;SDS011;51846;48.692;2.382;2023-10-08T09:52:09;9.82;;;5.45;;
65244;SDS011;51846;48.692;2.382;2023-10-08T09:54:48;10.95;;;5.40;;
65244;SDS011;51846;48.692;2.382;2023-10-08T09:57:18;9.88;;;5.20;;
65244;SDS011;51846;48.692;2.382;2023-10-08T09:59:46;9.80;;;5.20;;
65244;SDS011;51846;48.692;2.382;2023-10-08T10:02:14;14.60;;;5.18;;
65244;SDS011;51846;48.692;2.382;2023-10-08T10:04:43;9.00;;;4.88;;
65244;SDS011;51846;48.692;2.382;2023-10-08T10:07:14;17.67;;;4.75;;
65244;SDS011;51846;48.692;2.382;2023-10-08T10:09:45;10.27;;;4.60;;
65244;SDS011;51846;48.692;2.382;2023-10-08T10:12:11;7.35;;;4.22;;
65244;SDS011;51846;48.692;2.382;2023-10-08T10:14:40;8.15;;;4.30;;
65244;SDS011;51846;48.692;2.382;2023-10-08T10:17:19;7.45;;;3.72;;
65244;SDS011;51846;48.692;2.382;2023-10-08T10:19:53;7.95;;;3.70;;
65244;SDS011;51846;48.692;2.382;2023-10-08T10:22:28;10.18;;;4.22;;
65244;SDS011;51846;48.692;2.382;2023-10-08T10:24:56;10.77;;;3.80;;
65244;SDS011;51846;48.692;2.382;2023-10-08T10:27:22;9.80;;;3.80;;
65244;SDS011;51846;48.692;2.382;2023-10-08T10:29:48;6.60;;;3.72;;
65244;SDS011;51846;48.692;2.382;2023-10-08T10:32:14;9.40;;;3.85;;
65244;SDS011;51846;48.692;2.382;2023-10-08T10:34:41;7.43;;;3.72;;
65244;SDS011;51846;48.692;2.382;2023-10-08T10:37:07;5.80;;;3.50;;
65244;SDS011;51846;48.692;2.382;2023-10-08T10:39:54;7.90;;;4.13;;
65244;SDS011;51846;48.692;2.382;2023-10-08T10:42:23;7.35;;;3.47;;
65244;SDS011;51846;48.692;2.382;2023-10-08T10:44:49;10.23;;;3.55;;
65244;SDS011;51846;48.692;2.382;2023-10-08T10:47:15;8.48;;;3.65;;
65244;SDS011;51846;48.692;2.382;2023-10-08T10:49:42;9.25;;;3.50;;
65244;SDS011;51846;48.692;2.382;2023-10-08T10:52:14;7.75;;;3.55;;
65244;SDS011;51846;48.692;2.382;2023-10-08T10:54:56;7.00;;;3.55;;
65244;SDS011;51846;48.692;2.382;2023-10-08T10:57:41;10.70;;;3.50;;
65244;SDS011;51846;48.692;2.382;2023-10-08T11:00:07;6.72;;;3.40;;
65244;SDS011;51846;48.692;2.382;2023-10-08T11:02:52;8.00;;;3.28;;
65244;SDS011;51846;48.692;2.382;2023-10-08T11:05:21;8.65;;;3.53;;
65244;SDS011;51846;48.692;2.382;2023-10-08T11:07:53;6.45;;;3.20;;
65244;SDS011;51846;48.692;2.382;2023-10-08T11:10:23;7.38;;;3.20;;
65244;SDS011;51846;48.692;2.382;2023-10-08T11:12:49;6.60;;;3.30;;
65244;SDS011;51846;48.692;2.382;2023-10-08T11:15:18;7.38;;;3.60;;
65244;SDS011;51846;48.692;2.382;2023-10-08T11:17:44;6.28;;;3.25;;
65244;SDS011;51846;48.692;2.382;2023-10-08T11:20:24;5.15;;;3.10;;
65244;SDS011;51846;48.692;2.382;2023-10-08T11:22:50;8.02;;;3.83;;
65244;SDS011;51846;48.692;2.382;2023-10-08T11:25:27;9.57;;;3.60;;
65244;SDS011;51846;48.692;2.382;2023-10-08T11:27:55;10.30;;;3.30;;
65244;SDS011;51846;48.692;2.382;2023-10-08T11:30:34;7.10;;;3.47;;
65244;SDS011;51846;48.692;2.382;2023-10-08T11:33:00;9.15;;;4.03;;
65244;SDS011;51846;48.692;2.382;2023-10-08T11:35:26;6.10;;;3.30;;
65244;SDS011;51846;48.692;2.382;2023-10-08T11:37:59;6.63;;;3.40;;
65244;SDS011;51846;48.692;2.382;2023-10-08T11:40:26;8.25;;;3.63;;
65244;SDS011;51846;48.692;2.382;2023-10-08T11:45:41;7.18;;;3.28;;
65244;SDS011;51846;48.692;2.382;2023-10-08T11:48:13;7.82;;;3.55;;
65244;SDS011;51846;48.692;2.382;2023-10-08T11:50:42;5.97;;;3.50;;
65244;SDS011;51846;48.692;2.382;2023-10-08T11:53:08;8.13;;;3.80;;
65244;SDS011;51846;48.692;2.382;2023-10-08T11:55:34;7.53;;;3.70;;
65244;SDS011;51846;48.692;2.382;2023-10-08T11:58:02;5.72;;;3.33;;
65244;SDS011;51846;48.692;2.382;2023-10-08T12:00:40;6.55;;;3.60;;
65244;SDS011;51846;48.692;2.382;2023-10-08T12:03:10;6.90;;;3.65;;
65244;SDS011;51846;48.692;2.382;2023-10-08T12:05:37;8.68;;;3.72;;
65244;SDS011;51846;48.692;2.382;2023-10-08T12:08:08;6.07;;;3.50;;
65244;SDS011;51846;48.692;2.382;2023-10-08T12:10:34;6.35;;;3.50;;
65244;SDS011;51846;48.692;2.382;2023-10-08T12:12:59;6.90;;;3.20;;
65244;SDS011;51846;48.692;2.382;2023-10-08T12:15:25;7.40;;;3.42;;
65244;SDS011;51846;48.692;2.382;2023-10-08T12:17:59;7.10;;;3.50;;
65244;SDS011;51846;48.692;2.382;2023-10-08T12:20:36;7.53;;;3.45;;
65244;SDS011;51846;48.692;2.382;2023-10-08T12:23:03;7.72;;;3.47;;
65244;SDS011;51846;48.692;2.382;2023-10-08T12:25:35;5.65;;;3.70;;
65244;SDS011;51846;48.692;2.382;2023-10-08T12:28:02;7.05;;;3.28;;
65244;SDS011;51846;48.692;2.382;2023-10-08T12:30:32;6.03;;;3.47;;
65244;SDS011;51846;48.692;2.382;2023-10-08T12:33:06;7.47;;;3.50;;
65244;SDS011;51846;48.692;2.382;2023-10-08T12:35:32;7.57;;;3.22;;
65244;SDS011;51846;48.692;2.382;2023-10-08T12:37:57;6.63;;;3.20;;
65244;SDS011;51846;48.692;2.382;2023-10-08T12:40:23;8.15;;;2.88;;
65244;SDS011;51846;48.692;2.382;2023-10-08T12:42:51;8.65;;;3.20;;
65244;SDS011;51846;48.692;2.382;2023-10-08T12:45:17;9.18;;;3.53;;
65244;SDS011;51846;48.692;2.382;2023-10-08T12:47:51;6.22;;;3.10;;
65244;SDS011;51846;48.692;2.382;2023-10-08T12:50:18;7.05;;;3.10;;
65244;SDS011;51846;48.692;2.382;2023-10-08T12:53:08;7.70;;;3.17;;
65244;SDS011;51846;48.692;2.382;2023-10-08T12:55:36;7.13;;;3.38;;
65244;SDS011;51846;48.692;2.382;2023-10-08T12:58:05;10.10;;;3.00;;
65244;SDS011;51846;48.692;2.382;2023-10-08T13:00:34;5.80;;;2.88;;
65244;SDS011;51846;48.692;2.382;2023-10-08T13:03:03;8.30;;;3.30;;
65244;SDS011;51846;48.692;2.382;2023-10-08T13:05:31;6.03;;;2.65;;
65244;SDS011;51846;48.692;2.382;2023-10-08T13:07:58;7.47;;;3.13;;
65244;SDS011;51846;48.692;2.382;2023-10-08T13:10:29;5.97;;;3.20;;
65244;SDS011;51846;48.692;2.382;2023-10-08T13:12:56;7.25;;;3.08;;
65244;SDS011;51846;48.692;2.382;2023-10-08T13:15:21;6.32;;;2.88;;
65244;SDS011;51846;48.692;2.382;2023-10-08T13:17:50;7.10;;;3.00;;
65244;SDS011;51846;48.692;2.382;2023-10-08T13:20:16;7.00;;;2.70;;
65244;SDS011;51846;48.692;2.382;2023-10-08T13:22:42;7.05;;;3.05;;
65244;SDS011;51846;48.692;2.382;2023-10-08T13:25:08;16.10;;;3.00;;
65244;SDS011;51846;48.692;2.382;2023-10-08T13:27:34;5.03;;;2.70;;
65244;SDS011;51846;48.692;2.382;2023-10-08T13:30:04;6.60;;;2.70;;
65244;SDS011;51846;48.692;2.382;2023-10-08T13:32:34;6.38;;;2.75;;
65244;SDS011;51846;48.692;2.382;2023-10-08T13:35:02;6.38;;;2.95;;
65244;SDS011;51846;48.692;2.382;2023-10-08T13:37:29;7.38;;;2.80;;
65244;SDS011;51846;48.692;2.382;2023-10-08T13:39:56;5.28;;;2.50;;
65244;SDS011;51846;48.692;2.382;2023-10-08T13:42:21;8.00;;;2.92;;
65244;SDS011;51846;48.692;2.382;2023-10-08T13:44:47;6.63;;;2.70;;
65244;SDS011;51846;48.692;2.382;2023-10-08T13:47:13;6.97;;;3.00;;
65244;SDS011;51846;48.692;2.382;2023-10-08T13:49:40;6.25;;;2.72;;
65244;SDS011;51846;48.692;2.382;2023-10-08T13:52:08;17.20;;;3.20;;
65244;SDS011;51846;48.692;2.382;2023-10-08T13:54:33;5.97;;;2.63;;
65244;SDS011;51846;48.692;2.382;2023-10-08T13:57:04;5.45;;;2.58;;
65244;SDS011;51846;48.692;2.382;2023-10-08T13:59:32;5.93;;;2.50;;
65244;SDS011;51846;48.692;2.382;2023-10-08T14:01:57;5.78;;;2.70;;
65244;SDS011;51846;48.692;2.382;2023-10-08T14:04:23;5.93;;;2.78;;
65244;SDS011;51846;48.692;2.382;2023-10-08T14:06:55;7.07;;;2.80;;
65244;SDS011;51846;48.692;2.382;2023-10-08T14:09:23;8.52;;;2.72;;
65244;SDS011;51846;48.692;2.382;2023-10-08T14:12:01;13.57;;;3.00;;
65244;SDS011;51846;48.692;2.382;2023-10-08T14:14:28;11.57;;;2.97;;
65244;SDS011;51846;48.692;2.382;2023-10-08T14:16:58;9.55;;;2.50;;
65244;SDS011;51846;48.692;2.382;2023-10-08T14:19:35;8.57;;;3.00;;
65244;SDS011;51846;48.692;2.382;2023-10-08T14:22:04;6.80;;;2.70;;
65244;SDS011;51846;48.692;2.382;2023-10-08T14:24:33;10.95;;;2.97;;
65244;SDS011;51846;48.692;2.382;2023-10-08T14:27:02;5.55;;;2.80;;
65244;SDS011;51846;48.692;2.382;2023-10-08T14:29:34;9.18;;;3.03;;
65244;SDS011;51846;48.692;2.382;2023-10-08T14:32:05;7.30;;;2.92;;
65244;SDS011;51846;48.692;2.382;2023-10-08T14:34:34;7.32;;;3.10;;
65244;SDS011;51846;48.692;2.382;2023-10-08T14:37:08;6.75;;;3.13;;
65244;SDS011;51846;48.692;2.382;2023-10-08T14:39:53;11.13;;;3.10;;
65244;SDS011;51846;48.692;2.382;2023-10-08T14:42:37;11.48;;;3.00;;
65244;SDS011;51846;48.692;2.382;2023-10-08T14:45:20;9.45;;;3.15;;
65244;SDS011;51846;48.692;2.382;2023-10-08T14:47:47;8.00;;;3.15;;
65244;SDS011;51846;48.692;2.382;2023-10-08T14:50:13;6.43;;;2.92;;
65244;SDS011;51846;48.692;2.382;2023-10-08T14:52:44;7.45;;;3.17;;
65244;SDS011;51846;48.692;2.382;2023-10-08T14:55:10;8.80;;;3.08;;
65244;SDS011;51846;48.692;2.382;2023-10-08T14:57:38;6.28;;;3.10;;
65244;SDS011;51846;48.692;2.382;2023-10-08T15:00:05;8.65;;;3.33;;
65244;SDS011;51846;48.692;2.382;2023-10-08T15:02:31;12.90;;;3.30;;
65244;SDS011;51846;48.692;2.382;2023-10-08T15:04:58;6.30;;;2.97;;
65244;SDS011;51846;48.692;2.382;2023-10-08T15:07:26;8.60;;;2.92;;
65244;SDS011;51846;48.692;2.382;2023-10-08T15:09:52;10.63;;;3.00;;
65244;SDS011;51846;48.692;2.382;2023-10-08T15:12:20;11.63;;;3.33;;